Time;durP1;ratioP1;P1;durP2;ratioP2;P2;SDS_P1;SDS_P2;PMS_P1;PMS_P2;Temp;Humidity;BMP_temperature;BMP_pressure;BME280_temperature;BME280_humidity;BME280_pressure;Samples;Min_cycle;Max_cycle;Signal;HPM_P1;HPM_P2
2022/12/29 00:01:36;;;;;;;3.15;1.50;;;;;;;;;;5003252;28;88719;-65
2022/12/29 00:04:03;;;;;;;2.78;1.20;;;;;;;;;;5007155;28;87581;-65
2022/12/29 00:06:35;;;;;;;1.35;1.20;;;;;;;;;;5005352;28;88930;-65
2022/12/29 00:09:01;;;;;;;3.58;1.50;;;;;;;;;;5006037;28;87914;-66
2022/12/29 00:11:28;;;;;;;2.25;1.20;;;;;;;;;;5005366;28;90555;-64
2022/12/29 00:16:43;;;;;;;3.40;1.60;;;;;;;;;;5006020;28;88501;-64
2022/12/29 00:35:07;;;;;;;2.40;1.25;;;;;;;;;;5006262;28;88460;-64
2022/12/29 00:35:47;;;;;;;1.52;1.10;;;;;;;;;;5004708;28;89389;-67
2022/12/29 00:46:29;;;;;;;1.88;1.20;;;;;;;;;;5005920;28;89148;-65
2022/12/29 00:51:41;;;;;;;1.88;1.17;;;;;;;;;;5004065;28;90604;-65
2022/12/29 00:54:07;;;;;;;2.15;1.15;;;;;;;;;;5003756;28;89434;-65
2022/12/29 00:56:34;;;;;;;1.75;0.90;;;;;;;;;;5005974;28;87090;-65
2022/12/29 00:59:01;;;;;;;1.75;1.00;;;;;;;;;;5004467;28;89977;-64
2022/12/29 01:01:27;;;;;;;2.05;1.15;;;;;;;;;;5004845;28;87821;-64
2022/12/29 01:03:55;;;;;;;2.25;1.10;;;;;;;;;;5002896;28;88800;-64
2022/12/29 01:06:29;;;;;;;1.90;1.10;;;;;;;;;;5001699;28;90515;-65
2022/12/29 01:11:41;;;;;;;;;;;;;;;;;;5004252;28;90908;-65
2022/12/29 01:14:08;;;;;;;1.80;1.10;;;;;;;;;;5004765;28;120329;-64
2022/12/29 01:16:36;;;;;;;1.58;1.05;;;;;;;;;;5003918;28;87961;-66
2022/12/29 01:19:03;;;;;;;2.53;1.10;;;;;;;;;;5005315;28;88003;-66
2022/12/29 01:21:30;;;;;;;1.83;1.30;;;;;;;;;;5005597;28;87776;-66
2022/12/29 01:23:56;;;;;;;1.42;1.15;;;;;;;;;;5004169;28;88770;-66
2022/12/29 01:26:22;;;;;;;1.75;1.20;;;;;;;;;;5005023;28;87825;-63
2022/12/29 01:28:50;;;;;;;2.10;1.20;;;;;;;;;;5007536;28;89083;-65
2022/12/29 01:31:17;;;;;;;1.83;1.20;;;;;;;;;;5004719;28;89461;-65
2022/12/29 01:33:43;;;;;;;2.58;1.00;;;;;;;;;;5003664;28;90711;-66
2022/12/29 01:36:12;;;;;;;2.60;1.30;;;;;;;;;;5004908;28;87598;-64
2022/12/29 01:38:39;;;;;;;2.95;1.60;;;;;;;;;;5003971;28;88023;-65
2022/12/29 01:41:07;;;;;;;1.48;1.00;;;;;;;;;;5003421;28;90060;-65
2022/12/29 01:43:39;;;;;;;1.50;0.95;;;;;;;;;;5004962;28;87579;-65
2022/12/29 01:46:12;;;;;;;1.27;1.05;;;;;;;;;;5005204;28;87510;-65
2022/12/29 01:48:39;;;;;;;1.95;1.10;;;;;;;;;;5004756;28;88228;-65
2022/12/29 01:51:06;;;;;;;2.50;1.13;;;;;;;;;;5007496;28;87783;-65
2022/12/29 01:53:33;;;;;;;1.70;1.00;;;;;;;;;;5002335;28;88690;-66
2022/12/29 01:56:01;;;;;;;2.15;1.10;;;;;;;;;;5004835;28;87996;-65
2022/12/29 01:58:30;;;;;;;1.73;1.00;;;;;;;;;;5003641;28;90729;-66
2022/12/29 02:00:59;;;;;;;1.60;1.00;;;;;;;;;;5002459;28;90879;-66
2022/12/29 02:03:26;;;;;;;2.40;1.27;;;;;;;;;;5003541;28;89690;-65
2022/12/29 02:06:04;;;;;;;1.35;0.90;;;;;;;;;;5004827;28;88024;-66
2022/12/29 02:08:30;;;;;;;1.52;1.00;;;;;;;;;;5003590;28;90794;-65
2022/12/29 02:10:58;;;;;;;1.27;0.90;;;;;;;;;;5004010;28;87536;-67
2022/12/29 02:13:25;;;;;;;2.75;1.10;;;;;;;;;;5007596;28;87805;-63
2022/12/29 02:15:54;;;;;;;1.77;0.80;;;;;;;;;;5004641;28;89032;-63
2022/12/29 02:18:27;;;;;;;2.15;1.20;;;;;;;;;;5007795;28;88629;-64
2022/12/29 02:21:12;;;;;;;3.08;1.00;;;;;;;;;;5006896;28;90842;-65
2022/12/29 02:23:59;;;;;;;1.27;1.00;;;;;;;;;;5006661;28;87852;-63
2022/12/29 02:26:42;;;;;;;1.52;1.15;;;;;;;;;;5005130;28;88120;-65
2022/12/29 02:29:09;;;;;;;2.08;1.25;;;;;;;;;;5008076;28;88354;-65
2022/12/29 02:31:41;;;;;;;1.92;1.00;;;;;;;;;;5006599;28;89210;-65
2022/12/29 02:34:27;;;;;;;1.23;0.98;;;;;;;;;;5007991;28;88021;-65
2022/12/29 02:37:10;;;;;;;1.35;1.08;;;;;;;;;;5009565;28;90072;-63
2022/12/29 02:39:50;;;;;;;1.55;0.90;;;;;;;;;;5008203;28;87888;-66
2022/12/29 02:42:32;;;;;;;1.85;0.80;;;;;;;;;;5006274;28;87887;-64
2022/12/29 02:45:04;;;;;;;1.77;1.10;;;;;;;;;;5006052;28;89044;-66
2022/12/29 02:47:37;;;;;;;1.45;1.23;;;;;;;;;;5006329;28;89747;-65
2022/12/29 02:50:04;;;;;;;2.00;1.20;;;;;;;;;;5006520;28;88532;-64
2022/12/29 02:52:39;;;;;;;1.38;0.90;;;;;;;;;;5006073;28;88735;-65
2022/12/29 02:55:06;;;;;;;2.28;1.00;;;;;;;;;;5007234;28;89295;-66
2022/12/29 02:57:34;;;;;;;1.80;0.88;;;;;;;;;;5008519;28;90241;-68
2022/12/29 03:00:04;;;;;;;1.38;0.90;;;;;;;;;;5006056;28;90310;-66
2022/12/29 03:02:35;;;;;;;1.10;0.90;;;;;;;;;;5006159;28;90146;-66
2022/12/29 03:05:20;;;;;;;1.33;1.00;;;;;;;;;;5006153;28;87784;-64
2022/12/29 03:08:06;;;;;;;1.30;0.70;;;;;;;;;;5007343;28;89053;-64
2022/12/29 03:10:41;;;;;;;1.92;0.90;;;;;;;;;;5006632;28;89336;-65
2022/12/29 03:16:25;;;;;;;2.15;0.80;;;;;;;;;;5007379;28;88561;-66
2022/12/29 03:18:51;;;;;;;1.63;0.85;;;;;;;;;;5000228;28;88506;-65
2022/12/29 03:22:26;;;;;;;2.33;0.73;;;;;;;;;;5008374;28;89308;-66
2022/12/29 03:24:18;;;;;;;1.10;0.82;;;;;;;;;;5005693;28;88321;-65
2022/12/29 03:26:45;;;;;;;;;;;;;;;;;;5006364;28;87586;-66
2022/12/29 03:29:13;;;;;;;1.73;1.10;;;;;;;;;;5007880;28;88469;-66
2022/12/29 03:31:42;;;;;;;1.98;0.90;;;;;;;;;;5005308;28;90495;-67
2022/12/29 03:34:09;;;;;;;0.80;0.60;;;;;;;;;;5005631;28;87658;-65
2022/12/29 03:36:40;;;;;;;1.08;0.63;;;;;;;;;;5006167;28;88408;-67
2022/12/29 03:39:11;;;;;;;1.27;1.00;;;;;;;;;;5005318;28;88321;-65
2022/12/29 03:41:40;;;;;;;1.70;1.00;;;;;;;;;;5005104;28;88988;-63
2022/12/29 03:44:07;;;;;;;1.75;0.80;;;;;;;;;;5025231;28;88004;-65
2022/12/29 03:46:33;;;;;;;1.13;0.82;;;;;;;;;;5006431;28;88045;-65
2022/12/29 03:49:01;;;;;;;1.70;0.80;;;;;;;;;;5005489;28;90530;-66
2022/12/29 03:51:27;;;;;;;1.83;0.93;;;;;;;;;;5002019;28;94733;-64
2022/12/29 03:53:54;;;;;;;1.63;0.75;;;;;;;;;;5002491;28;91493;-64
2022/12/29 03:56:21;;;;;;;1.20;0.70;;;;;;;;;;5001980;28;92088;-67
2022/12/29 03:58:48;;;;;;;1.83;0.93;;;;;;;;;;5002150;28;94966;-66
2022/12/29 04:01:28;;;;;;;3.40;1.13;;;;;;;;;;5000095;28;94522;-66
2022/12/29 04:03:55;;;;;;;1.25;0.73;;;;;;;;;;5002297;28;97159;-65
2022/12/29 04:06:22;;;;;;;1.17;0.93;;;;;;;;;;5004599;28;95127;-65
2022/12/29 04:08:53;;;;;;;1.60;0.90;;;;;;;;;;5002350;28;95003;-64
2022/12/29 04:11:21;;;;;;;2.10;0.93;;;;;;;;;;5001678;28;95146;-64
2022/12/29 04:13:53;;;;;;;1.38;0.93;;;;;;;;;;5002103;28;92098;-66
2022/12/29 04:16:23;;;;;;;2.30;0.70;;;;;;;;;;5001679;28;92733;-65
2022/12/29 04:18:49;;;;;;;1.30;0.65;;;;;;;;;;5002402;28;93522;-67
2022/12/29 04:21:16;;;;;;;1.20;0.80;;;;;;;;;;5001405;28;92046;-64
2022/12/29 04:23:43;;;;;;;1.10;0.98;;;;;;;;;;5001813;28;92669;-65
2022/12/29 04:26:11;;;;;;;2.00;1.00;;;;;;;;;;4999950;28;97723;-65
2022/12/29 04:28:48;;;;;;;0.88;0.60;;;;;;;;;;5005187;28;92327;-66
2022/12/29 04:31:25;;;;;;;1.33;0.80;;;;;;;;;;5001359;28;94603;-66
2022/12/29 04:33:51;;;;;;;1.10;0.90;;;;;;;;;;5001915;28;92076;-63
2022/12/29 04:36:18;;;;;;;1.65;1.00;;;;;;;;;;4984733;28;95082;-64
2022/12/29 04:38:44;;;;;;;2.47;0.90;;;;;;;;;;5001979;28;94239;-65
2022/12/29 04:41:12;;;;;;;1.48;0.88;;;;;;;;;;5001485;28;92448;-64
2022/12/29 04:43:38;;;;;;;1.95;0.88;;;;;;;;;;5002223;28;92448;-65
2022/12/29 04:46:10;;;;;;;2.58;0.80;;;;;;;;;;5000617;28;92437;-65
2022/12/29 04:49:00;;;;;;;1.20;0.80;;;;;;;;;;5001784;28;92036;-67
2022/12/29 04:52:05;;;;;;;1.38;0.80;;;;;;;;;;4949925;28;94856;-63
2022/12/29 04:54:32;;;;;;;1.67;0.60;;;;;;;;;;4940848;28;92118;-65
2022/12/29 04:57:10;;;;;;;1.85;0.80;;;;;;;;;;4958089;28;92992;-65
2022/12/29 04:59:38;;;;;;;1.90;0.80;;;;;;;;;;4998301;28;93130;-65
2022/12/29 05:02:05;;;;;;;2.58;1.02;;;;;;;;;;5000148;28;92357;-65
2022/12/29 05:04:33;;;;;;;2.03;0.90;;;;;;;;;;4989565;28;92609;-65
2022/12/29 05:07:01;;;;;;;2.05;0.90;;;;;;;;;;5012272;28;95701;-66
2022/12/29 05:09:27;;;;;;;1.45;0.80;;;;;;;;;;4992192;28;91910;-65
2022/12/29 05:11:54;;;;;;;2.10;0.80;;;;;;;;;;5003830;28;94386;-65
2022/12/29 05:14:21;;;;;;;2.08;0.90;;;;;;;;;;5014922;28;92686;-65
2022/12/29 05:16:47;;;;;;;1.70;0.90;;;;;;;;;;5010632;28;94891;-66
2022/12/29 05:19:14;;;;;;;1.75;0.80;;;;;;;;;;5000884;28;95249;-65
2022/12/29 05:21:40;;;;;;;1.10;0.70;;;;;;;;;;5002249;28;92315;-63
2022/12/29 05:24:07;;;;;;;1.90;0.80;;;;;;;;;;5001114;28;95158;-64
2022/12/29 05:26:34;;;;;;;3.38;0.90;;;;;;;;;;5000435;28;94187;-67
2022/12/29 05:29:08;;;;;;;1.42;0.60;;;;;;;;;;5001135;28;92329;-66
2022/12/29 05:31:35;;;;;;;2.28;0.70;;;;;;;;;;5000620;28;92349;-66
2022/12/29 05:34:03;;;;;;;2.53;0.77;;;;;;;;;;5004235;28;94299;-65
2022/12/29 05:36:30;;;;;;;2.90;0.90;;;;;;;;;;5000401;28;93736;-64
2022/12/29 05:39:03;;;;;;;2.22;0.77;;;;;;;;;;5000605;28;92728;-65
2022/12/29 05:41:30;;;;;;;1.38;0.63;;;;;;;;;;4998959;28;94718;-65
2022/12/29 05:44:16;;;;;;;3.83;0.90;;;;;;;;;;4997775;28;94898;-65
2022/12/29 05:47:06;;;;;;;1.63;0.77;;;;;;;;;;4987827;28;93069;-66
2022/12/29 05:49:42;;;;;;;2.67;0.68;;;;;;;;;;5000116;28;92236;-67
2022/12/29 05:52:20;;;;;;;3.15;0.88;;;;;;;;;;5001688;28;91998;-65
2022/12/29 05:54:47;;;;;;;2.35;0.60;;;;;;;;;;4999632;28;92227;-64
2022/12/29 05:57:17;;;;;;;2.97;0.98;;;;;;;;;;5003551;28;92294;-64
2022/12/29 05:59:48;;;;;;;3.33;0.90;;;;;;;;;;5000808;28;94453;-65
2022/12/29 06:02:15;;;;;;;2.58;0.82;;;;;;;;;;5001240;28;92025;-66
2022/12/29 06:04:42;;;;;;;3.13;0.80;;;;;;;;;;5000449;28;92467;-66
2022/12/29 06:07:09;;;;;;;2.25;0.77;;;;;;;;;;4998256;28;94991;-64
2022/12/29 06:09:40;;;;;;;2.95;0.95;;;;;;;;;;5000555;28;92591;-65
2022/12/29 06:12:08;;;;;;;3.03;0.88;;;;;;;;;;5000232;28;92525;-64
2022/12/29 06:14:36;;;;;;;4.53;1.02;;;;;;;;;;5000184;28;92250;-65
2022/12/29 06:17:03;;;;;;;2.85;0.85;;;;;;;;;;4999878;28;92111;-65
2022/12/29 06:19:31;;;;;;;1.02;0.77;;;;;;;;;;5004608;28;92708;-65
2022/12/29 06:21:57;;;;;;;3.42;0.90;;;;;;;;;;5001291;28;92430;-65
2022/12/29 06:24:24;;;;;;;2.63;0.77;;;;;;;;;;5000737;28;92361;-68
2022/12/29 06:26:51;;;;;;;2.78;0.90;;;;;;;;;;4999681;28;95424;-65
2022/12/29 06:29:17;;;;;;;3.65;1.00;;;;;;;;;;5000172;28;92591;-67
2022/12/29 06:31:49;;;;;;;3.15;0.80;;;;;;;;;;4998384;28;94853;-65
2022/12/29 06:34:15;;;;;;;4.05;0.80;;;;;;;;;;4999913;28;94486;-64
2022/12/29 06:36:42;;;;;;;4.47;0.95;;;;;;;;;;4999937;28;92250;-64
2022/12/29 06:39:10;;;;;;;2.00;0.80;;;;;;;;;;5000499;28;93620;-66
2022/12/29 06:41:36;;;;;;;3.67;0.82;;;;;;;;;;5002765;28;92960;-66
2022/12/29 06:44:11;;;;;;;3.17;0.80;;;;;;;;;;4998452;28;91987;-66
2022/12/29 06:46:48;;;;;;;5.95;1.00;;;;;;;;;;5001127;28;93464;-67
2022/12/29 06:49:15;;;;;;;3.28;0.82;;;;;;;;;;5001753;28;91797;-65
2022/12/29 06:51:42;;;;;;;2.47;0.80;;;;;;;;;;4999968;28;92306;-65
2022/12/29 06:54:08;;;;;;;4.03;1.00;;;;;;;;;;5000915;28;92759;-65
2022/12/29 06:56:35;;;;;;;3.50;0.70;;;;;;;;;;4999268;28;95574;-65
2022/12/29 06:59:01;;;;;;;3.88;0.82;;;;;;;;;;5001185;28;94623;-64
2022/12/29 07:01:28;;;;;;;2.95;0.80;;;;;;;;;;5000514;28;92449;-65
2022/12/29 07:03:54;;;;;;;3.40;0.88;;;;;;;;;;5007977;28;92598;-65
2022/12/29 07:06:21;;;;;;;3.70;0.98;;;;;;;;;;5004096;28;92479;-64
2022/12/29 07:08:47;;;;;;;4.15;1.27;;;;;;;;;;5004914;28;92621;-65
2022/12/29 07:11:13;;;;;;;2.35;0.80;;;;;;;;;;5004196;28;92991;-65
2022/12/29 07:13:40;;;;;;;4.35;1.00;;;;;;;;;;5004658;28;92049;-65
2022/12/29 07:16:07;;;;;;;2.00;0.70;;;;;;;;;;5004260;28;93402;-66
2022/12/29 07:18:34;;;;;;;5.63;1.30;;;;;;;;;;5002911;28;92738;-65
2022/12/29 07:21:00;;;;;;;1.92;0.88;;;;;;;;;;5002494;28;94763;-65
2022/12/29 07:23:27;;;;;;;4.50;1.00;;;;;;;;;;5007484;28;92373;-66
2022/12/29 07:26:00;;;;;;;3.95;1.17;;;;;;;;;;5003652;28;92785;-66
2022/12/29 07:28:27;;;;;;;4.30;0.88;;;;;;;;;;5004253;28;92059;-66
2022/12/29 07:30:53;;;;;;;2.08;0.80;;;;;;;;;;5004264;28;92419;-65
2022/12/29 07:33:19;;;;;;;2.78;0.93;;;;;;;;;;5003688;28;92718;-64
2022/12/29 07:35:46;;;;;;;1.40;0.80;;;;;;;;;;5003745;28;92080;-65
2022/12/29 07:38:12;;;;;;;2.30;0.60;;;;;;;;;;5004365;28;92447;-67
2022/12/29 07:40:39;;;;;;;3.60;1.02;;;;;;;;;;5002223;28;92861;-66
2022/12/29 07:43:05;;;;;;;2.97;1.00;;;;;;;;;;5003989;28;92359;-65
2022/12/29 07:45:38;;;;;;;3.30;1.02;;;;;;;;;;5004024;28;95136;-64
2022/12/29 07:48:08;;;;;;;3.15;0.98;;;;;;;;;;5003560;28;92048;-66
2022/12/29 07:50:34;;;;;;;4.00;0.80;;;;;;;;;;5003664;28;92756;-65
2022/12/29 07:53:01;;;;;;;3.60;0.93;;;;;;;;;;5003683;28;92918;-64
2022/12/29 07:55:27;;;;;;;4.90;1.00;;;;;;;;;;5003620;28;92139;-67
2022/12/29 07:57:54;;;;;;;4.95;1.00;;;;;;;;;;5003476;28;92912;-65
2022/12/29 08:00:20;;;;;;;3.30;0.90;;;;;;;;;;5003741;28;92679;-65
2022/12/29 08:02:47;;;;;;;2.95;0.80;;;;;;;;;;4982028;28;91259;-64
2022/12/29 08:05:15;;;;;;;2.25;0.80;;;;;;;;;;5000812;28;92331;-65
2022/12/29 08:07:41;;;;;;;;;;;;;;;;;;5006146;28;93072;-63
2022/12/29 08:10:07;;;;;;;;;;;;;;;;;;5002692;28;121897;-66
2022/12/29 08:12:34;;;;;;;3.75;0.90;;;;;;;;;;5003219;28;105995;-66
2022/12/29 08:15:00;;;;;;;4.70;0.85;;;;;;;;;;5003077;28;91982;-64
2022/12/29 08:17:26;;;;;;;3.05;1.00;;;;;;;;;;5002712;28;93016;-67
2022/12/29 08:19:53;;;;;;;3.45;0.88;;;;;;;;;;5002800;28;92926;-66
2022/12/29 08:22:19;;;;;;;3.42;1.00;;;;;;;;;;5002315;28;92066;-66
2022/12/29 08:24:46;;;;;;;3.75;1.10;;;;;;;;;;5003056;28;92547;-64
2022/12/29 08:27:12;;;;;;;3.65;1.10;;;;;;;;;;5002951;28;92101;-66
2022/12/29 08:29:46;;;;;;;2.55;0.90;;;;;;;;;;5005950;28;92015;-65
2022/12/29 08:32:13;;;;;;;2.88;0.90;;;;;;;;;;5002168;28;93019;-65
2022/12/29 08:34:39;;;;;;;3.10;0.90;;;;;;;;;;5000724;28;94410;-65
2022/12/29 08:37:05;;;;;;;3.95;1.00;;;;;;;;;;5002524;28;95476;-66
2022/12/29 08:39:32;;;;;;;4.05;0.82;;;;;;;;;;5002473;28;92775;-64
2022/12/29 08:41:58;;;;;;;3.78;1.10;;;;;;;;;;5002351;28;92280;-67
2022/12/29 08:44:25;;;;;;;5.00;1.10;;;;;;;;;;5002312;28;92215;-65
2022/12/29 08:46:51;;;;;;;5.00;1.10;;;;;;;;;;5001912;28;92652;-67
2022/12/29 08:49:18;;;;;;;2.95;1.10;;;;;;;;;;5002319;28;92113;-67
2022/12/29 08:51:44;;;;;;;3.40;0.90;;;;;;;;;;5005494;28;92764;-66
2022/12/29 08:54:10;;;;;;;3.08;1.15;;;;;;;;;;5001841;28;92456;-67
2022/12/29 08:56:38;;;;;;;1.63;0.80;;;;;;;;;;5000596;28;92557;-66
2022/12/29 08:59:04;;;;;;;3.80;1.10;;;;;;;;;;4998900;28;95098;-64
2022/12/29 09:01:31;;;;;;;3.95;0.90;;;;;;;;;;5000391;28;92461;-65
2022/12/29 09:03:57;;;;;;;3.33;1.00;;;;;;;;;;5001802;28;92427;-67
2022/12/29 09:06:43;;;;;;;2.00;0.80;;;;;;;;;;5001746;28;93044;-67
2022/12/29 09:09:10;;;;;;;3.10;1.00;;;;;;;;;;5002041;28;92319;-66
2022/12/29 09:11:36;;;;;;;3.17;1.20;;;;;;;;;;5004832;28;92341;-66
2022/12/29 09:14:03;;;;;;;2.35;1.02;;;;;;;;;;5002190;28;92538;-65
2022/12/29 09:16:29;;;;;;;3.08;1.00;;;;;;;;;;5002159;28;91826;-65
2022/12/29 09:18:56;;;;;;;3.35;1.00;;;;;;;;;;5001781;28;93294;-66
2022/12/29 09:21:22;;;;;;;5.68;1.20;;;;;;;;;;5000611;28;92548;-66
2022/12/29 09:23:49;;;;;;;3.55;1.10;;;;;;;;;;5000555;28;94849;-66
2022/12/29 09:26:15;;;;;;;4.22;1.30;;;;;;;;;;5000799;28;93248;-65
2022/12/29 09:28:42;;;;;;;3.10;0.80;;;;;;;;;;5001739;28;92684;-64
2022/12/29 09:31:08;;;;;;;2.95;1.05;;;;;;;;;;5001612;28;92441;-68
2022/12/29 09:33:34;;;;;;;3.95;1.50;;;;;;;;;;5004529;28;92757;-66
2022/12/29 09:36:01;;;;;;;2.72;0.98;;;;;;;;;;5001503;28;93099;-65
2022/12/29 09:38:28;;;;;;;3.88;1.05;;;;;;;;;;5001442;28;93531;-66
2022/12/29 09:41:04;;;;;;;4.35;1.02;;;;;;;;;;5000548;28;91499;-65
2022/12/29 09:43:49;;;;;;;3.25;0.93;;;;;;;;;;5001590;28;92624;-66
2022/12/29 09:46:16;;;;;;;4.80;1.10;;;;;;;;;;5000630;28;94130;-66
2022/12/29 09:48:45;;;;;;;4.43;0.98;;;;;;;;;;5000054;28;94340;-68
2022/12/29 09:51:13;;;;;;;3.38;1.00;;;;;;;;;;5000993;28;95862;-66
2022/12/29 09:53:45;;;;;;;3.78;0.95;;;;;;;;;;5000779;28;93159;-65
2022/12/29 09:56:17;;;;;;;4.57;1.20;;;;;;;;;;5004667;28;91983;-67
2022/12/29 09:58:47;;;;;;;3.78;0.88;;;;;;;;;;5001163;28;93184;-68
2022/12/29 10:01:22;;;;;;;1.92;1.00;;;;;;;;;;4999304;28;92467;-67
2022/12/29 10:03:51;;;;;;;4.85;1.00;;;;;;;;;;5001596;28;92473;-64
2022/12/29 10:06:24;;;;;;;3.67;0.82;;;;;;;;;;5001271;28;92432;-67
2022/12/29 10:08:56;;;;;;;2.88;0.85;;;;;;;;;;5001853;28;92270;-67
2022/12/29 10:11:31;;;;;;;4.30;1.10;;;;;;;;;;5001298;28;92582;-65
2022/12/29 10:14:16;;;;;;;4.30;0.90;;;;;;;;;;4999714;28;95452;-66
2022/12/29 10:16:42;;;;;;;4.15;1.05;;;;;;;;;;5001081;28;92318;-67
2022/12/29 10:19:32;;;;;;;2.78;1.00;;;;;;;;;;5003972;28;92247;-67
2022/12/29 10:22:02;;;;;;;2.58;0.90;;;;;;;;;;4997538;28;92187;-65
2022/12/29 10:24:29;;;;;;;4.10;0.90;;;;;;;;;;5001138;28;92280;-67
2022/12/29 10:26:56;;;;;;;5.57;1.00;;;;;;;;;;4999734;28;92732;-66
2022/12/29 10:29:26;;;;;;;5.07;1.10;;;;;;;;;;5001076;28;92189;-66
2022/12/29 10:32:00;;;;;;;4.43;1.15;;;;;;;;;;5001607;28;92362;-66
2022/12/29 10:34:45;;;;;;;3.97;0.90;;;;;;;;;;5000850;28;92994;-67
2022/12/29 10:37:31;;;;;;;5.13;0.98;;;;;;;;;;5002985;28;92422;-66
2022/12/29 10:40:02;;;;;;;3.80;1.00;;;;;;;;;;4992476;28;94698;-67
2022/12/29 10:42:36;;;;;;;2.83;0.95;;;;;;;;;;5005469;28;93535;-67
2022/12/29 10:45:04;;;;;;;3.10;0.90;;;;;;;;;;5019977;28;92663;-67
2022/12/29 10:47:34;;;;;;;3.80;0.80;;;;;;;;;;5002319;28;93743;-67
2022/12/29 10:50:01;;;;;;;2.25;0.82;;;;;;;;;;5004190;28;93068;-67
2022/12/29 10:52:28;;;;;;;2.70;0.80;;;;;;;;;;5004110;28;92334;-67
2022/12/29 10:55:05;;;;;;;4.85;1.10;;;;;;;;;;5001847;28;92733;-66
2022/12/29 10:57:43;;;;;;;3.58;1.20;;;;;;;;;;5003119;28;91552;-65
2022/12/29 11:00:16;;;;;;;3.28;1.00;;;;;;;;;;5004195;28;92142;-65
2022/12/29 11:02:42;;;;;;;3.40;1.13;;;;;;;;;;4998554;28;92195;-68
2022/12/29 11:05:28;;;;;;;4.32;1.13;;;;;;;;;;5005680;28;94446;-66
2022/12/29 11:07:57;;;;;;;3.53;0.93;;;;;;;;;;5003725;28;92728;-67
2022/12/29 11:10:33;;;;;;;3.03;1.10;;;;;;;;;;5003659;28;92031;-67
2022/12/29 11:13:00;;;;;;;3.88;0.90;;;;;;;;;;5003841;28;92284;-67
2022/12/29 11:15:27;;;;;;;4.07;1.05;;;;;;;;;;5003957;28;93191;-67
2022/12/29 11:17:57;;;;;;;5.63;1.17;;;;;;;;;;5003712;28;92147;-66
2022/12/29 11:20:37;;;;;;;3.17;1.10;;;;;;;;;;5003788;28;92997;-68
2022/12/29 11:23:20;;;;;;;6.38;1.30;;;;;;;;;;5003732;28;92276;-65
2022/12/29 11:26:04;;;;;;;4.78;1.13;;;;;;;;;;5006199;28;91936;-65
2022/12/29 11:28:33;;;;;;;4.65;1.13;;;;;;;;;;5003660;28;93213;-66
2022/12/29 11:31:01;;;;;;;4.00;1.10;;;;;;;;;;5001877;28;94496;-66
2022/12/29 11:33:28;;;;;;;3.30;1.00;;;;;;;;;;5003474;28;94069;-65
2022/12/29 11:36:03;;;;;;;2.83;1.17;;;;;;;;;;5003384;28;92890;-67
2022/12/29 11:38:38;;;;;;;6.18;1.50;;;;;;;;;;5003654;28;92215;-66
2022/12/29 11:41:06;;;;;;;3.83;1.10;;;;;;;;;;5003580;28;92523;-66
2022/12/29 11:43:37;;;;;;;4.72;1.30;;;;;;;;;;5003724;28;93908;-66
2022/12/29 11:46:04;;;;;;;4.80;1.20;;;;;;;;;;5003158;28;92055;-67
2022/12/29 11:48:39;;;;;;;3.28;1.02;;;;;;;;;;5005929;28;92859;-66
2022/12/29 11:51:06;;;;;;;3.60;1.10;;;;;;;;;;5003088;28;92432;-67
2022/12/29 11:53:38;;;;;;;4.53;1.25;;;;;;;;;;5002529;28;92576;-66
2022/12/29 11:56:08;;;;;;;5.20;1.13;;;;;;;;;;5000131;28;94601;-66
2022/12/29 11:58:36;;;;;;;3.40;1.20;;;;;;;;;;5003013;28;92653;-66
2022/12/29 12:01:20;;;;;;;4.78;1.17;;;;;;;;;;5002669;28;92347;-65
2022/12/29 12:03:53;;;;;;;4.88;1.10;;;;;;;;;;5003197;28;92697;-66
2022/12/29 12:06:23;;;;;;;3.85;1.27;;;;;;;;;;5002722;28;92142;-64
2022/12/29 12:08:54;;;;;;;4.50;1.48;;;;;;;;;;5003331;28;92437;-65
2022/12/29 12:11:24;;;;;;;2.83;1.20;;;;;;;;;;5005416;28;92768;-66
2022/12/29 12:14:02;;;;;;;4.55;1.30;;;;;;;;;;5001973;28;92022;-68
2022/12/29 12:16:52;;;;;;;3.85;1.00;;;;;;;;;;5001184;28;93923;-65
2022/12/29 12:19:31;;;;;;;4.78;1.15;;;;;;;;;;5002877;28;92082;-65
2022/12/29 12:22:19;;;;;;;3.67;1.10;;;;;;;;;;4999860;28;94747;-66
2022/12/29 12:24:54;;;;;;;4.72;1.10;;;;;;;;;;5002544;28;92497;-65
2022/12/29 12:27:34;;;;;;;4.53;1.33;;;;;;;;;;5002426;28;92322;-67
2022/12/29 12:30:02;;;;;;;5.22;1.20;;;;;;;;;;5002904;28;92320;-66
2022/12/29 12:32:42;;;;;;;5.20;1.00;;;;;;;;;;5002003;28;93134;-67
2022/12/29 12:35:32;;;;;;;5.13;1.15;;;;;;;;;;5002127;28;91948;-65
2022/12/29 12:37:58;;;;;;;4.22;1.20;;;;;;;;;;4999538;28;92596;-67
2022/12/29 12:40:25;;;;;;;3.20;1.23;;;;;;;;;;5003120;28;92102;-69
2022/12/29 12:42:57;;;;;;;4.15;1.23;;;;;;;;;;5002173;28;92158;-66
2022/12/29 12:45:36;;;;;;;3.97;1.10;;;;;;;;;;5001199;28;92823;-66
2022/12/29 12:48:21;;;;;;;4.18;1.30;;;;;;;;;;5000693;28;94351;-69
2022/12/29 12:50:51;;;;;;;3.58;1.15;;;;;;;;;;5002111;28;95245;-65
2022/12/29 12:53:42;;;;;;;3.22;1.00;;;;;;;;;;5002264;28;92928;-65
2022/12/29 12:56:12;;;;;;;3.67;1.30;;;;;;;;;;5002455;28;92067;-67
2022/12/29 12:58:41;;;;;;;6.50;1.98;;;;;;;;;;5004785;28;92394;-67
2022/12/29 13:01:07;;;;;;;5.47;1.40;;;;;;;;;;5000817;28;92519;-66
2022/12/29 13:03:52;;;;;;;5.63;1.30;;;;;;;;;;5002138;28;92723;-67
2022/12/29 13:06:19;;;;;;;5.32;1.30;;;;;;;;;;5002270;28;91812;-67
2022/12/29 13:08:45;;;;;;;5.60;1.30;;;;;;;;;;5002218;28;92094;-66
2022/12/29 13:11:14;;;;;;;6.90;1.40;;;;;;;;;;5002207;28;92558;-67
2022/12/29 13:13:59;;;;;;;4.32;1.15;;;;;;;;;;5000048;28;95228;-65
2022/12/29 13:16:34;;;;;;;7.10;1.52;;;;;;;;;;5001727;28;92236;-66
2022/12/29 13:19:16;;;;;;;6.45;1.40;;;;;;;;;;5002621;28;92535;-67
2022/12/29 13:21:50;;;;;;;4.57;1.40;;;;;;;;;;5004966;28;92800;-66
2022/12/29 13:24:27;;;;;;;4.72;1.20;;;;;;;;;;5000503;28;92578;-66
2022/12/29 13:27:01;;;;;;;6.40;1.40;;;;;;;;;;5001394;28;92772;-67
2022/12/29 13:29:33;;;;;;;4.22;1.33;;;;;;;;;;5001882;28;92085;-68
2022/12/29 13:32:22;;;;;;;6.70;1.50;;;;;;;;;;5001929;28;93404;-67
2022/12/29 13:35:07;;;;;;;6.47;1.70;;;;;;;;;;5000039;28;94562;-67
2022/12/29 13:37:35;;;;;;;5.85;1.38;;;;;;;;;;5001740;28;92448;-67
2022/12/29 13:40:04;;;;;;;4.60;1.20;;;;;;;;;;4999792;28;94656;-66
2022/12/29 13:42:31;;;;;;;5.63;1.50;;;;;;;;;;5003782;28;92726;-66
2022/12/29 13:45:00;;;;;;;3.95;1.50;;;;;;;;;;5001659;28;92351;-67
2022/12/29 13:47:30;;;;;;;6.15;1.67;;;;;;;;;;5016448;28;93248;-66
2022/12/29 13:49:58;;;;;;;5.03;1.67;;;;;;;;;;5001811;28;92263;-66
2022/12/29 13:52:31;;;;;;;4.53;1.52;;;;;;;;;;5001205;28;92646;-67
2022/12/29 13:55:06;;;;;;;5.35;1.30;;;;;;;;;;5000532;28;92675;-65
2022/12/29 13:57:45;;;;;;;5.88;1.58;;;;;;;;;;5002163;28;91937;-66
2022/12/29 14:00:14;;;;;;;4.75;1.50;;;;;;;;;;4999597;28;92330;-67
2022/12/29 14:02:53;;;;;;;4.75;1.60;;;;;;;;;;5000395;28;92932;-66
2022/12/29 14:05:19;;;;;;;7.28;1.60;;;;;;;;;;5002966;28;95570;-67
2022/12/29 14:07:46;;;;;;;6.07;1.48;;;;;;;;;;4990935;28;93101;-64
2022/12/29 14:10:48;;;;;;;5.32;1.20;;;;;;;;;;5001301;28;92344;-68
2022/12/29 14:13:16;;;;;;;5.60;1.50;;;;;;;;;;4982342;28;92627;-66
2022/12/29 14:15:45;;;;;;;4.00;1.42;;;;;;;;;;4989630;28;92694;-66
2022/12/29 14:18:14;;;;;;;5.65;1.60;;;;;;;;;;5005020;28;92035;-65
2022/12/29 14:20:50;;;;;;;5.80;1.42;;;;;;;;;;5004570;28;92468;-67
2022/12/29 14:23:26;;;;;;;6.15;1.50;;;;;;;;;;5005104;28;91758;-65
2022/12/29 14:25:55;;;;;;;5.03;1.30;;;;;;;;;;5004505;28;92219;-67
2022/12/29 14:28:47;;;;;;;5.65;1.58;;;;;;;;;;5007363;28;92793;-67
2022/12/29 14:31:14;;;;;;;6.28;1.42;;;;;;;;;;5000244;28;94591;-66
2022/12/29 14:33:41;;;;;;;3.42;1.30;;;;;;;;;;5004033;28;96163;-66
2022/12/29 14:36:33;;;;;;;4.97;1.33;;;;;;;;;;5003872;28;92259;-65
2022/12/29 14:38:59;;;;;;;;;;;;;;;;;;5005311;28;92134;-68
2022/12/29 14:41:26;;;;;;;;;;;;;;;;;;5004483;28;115862;-65
2022/12/29 14:43:57;;;;;;;5.10;1.35;;;;;;;;;;5004536;28;95438;-67
2022/12/29 14:46:24;;;;;;;5.40;1.60;;;;;;;;;;5004585;28;92720;-66
2022/12/29 14:48:55;;;;;;;5.38;1.63;;;;;;;;;;5005267;28;92208;-66
2022/12/29 14:51:39;;;;;;;4.05;1.58;;;;;;;;;;5007380;28;93917;-66
2022/12/29 14:54:38;;;;;;;4.78;1.40;;;;;;;;;;5002100;28;94315;-66
2022/12/29 14:57:07;;;;;;;4.30;1.45;;;;;;;;;;4976247;28;95485;-66
2022/12/29 14:59:34;;;;;;;5.15;1.33;;;;;;;;;;5004174;28;92449;-67
2022/12/29 15:02:02;;;;;;;4.28;1.10;;;;;;;;;;5002350;28;93594;-68
2022/12/29 15:04:33;;;;;;;4.05;1.40;;;;;;;;;;5003276;28;92747;-66
2022/12/29 15:07:03;;;;;;;4.65;1.40;;;;;;;;;;5004069;28;92572;-65
2022/12/29 15:09:33;;;;;;;7.20;1.80;;;;;;;;;;5004184;28;92690;-67
2022/12/29 15:12:13;;;;;;;5.38;1.52;;;;;;;;;;5003983;28;93245;-67
2022/12/29 15:15:00;;;;;;;3.65;1.30;;;;;;;;;;5008221;28;91372;-66
2022/12/29 15:17:27;;;;;;;5.47;1.65;;;;;;;;;;5003902;28;92265;-66
2022/12/29 15:19:54;;;;;;;;;;;;;;;;;;5004802;28;92032;-67
2022/12/29 15:22:20;;;;;;;3.60;1.42;;;;;;;;;;5002345;28;112423;-66
2022/12/29 15:24:49;;;;;;;4.55;1.30;;;;;;;;;;5004009;28;92584;-65
2022/12/29 15:27:18;;;;;;;4.63;1.33;;;;;;;;;;4992028;28;93893;-66
2022/12/29 15:29:45;;;;;;;4.32;1.40;;;;;;;;;;4999237;28;92283;-66
2022/12/29 15:32:15;;;;;;;3.78;1.30;;;;;;;;;;5003506;28;93768;-66
2022/12/29 15:34:42;;;;;;;3.53;1.20;;;;;;;;;;5004084;28;91948;-67
2022/12/29 15:37:09;;;;;;;4.68;1.30;;;;;;;;;;5006650;28;92501;-66
2022/12/29 15:39:35;;;;;;;4.72;1.58;;;;;;;;;;5004563;28;91487;-66
2022/12/29 15:42:16;;;;;;;3.78;1.33;;;;;;;;;;5003932;28;94739;-66